sensor_id;sensor_type;location;lat;lon;timestamp;pressure;altitude;pressure_sealevel;temperature;humidity
76694;BME280;69667;52.136;5.424;2023-12-14T00:02:18;101092.97;;;5.35;100.00
76694;BME280;69667;52.136;5.424;2023-12-14T00:04:46;101102.88;;;5.33;100.00
76694;BME280;69667;52.136;5.424;2023-12-14T00:07:15;101103.75;;;5.34;100.00
76694;BME280;69667;52.136;5.424;2023-12-14T00:09:43;101119.75;;;5.35;100.00
76694;BME280;69667;52.136;5.424;2023-12-14T00:12:11;101124.28;;;5.33;100.00
76694;BME280;69667;52.136;5.424;2023-12-14T00:14:40;101125.16;;;5.34;100.00
76694;BME280;69667;52.136;5.424;2023-12-14T00:17:08;101121.63;;;5.33;100.00
76694;BME280;69667;52.136;5.424;2023-12-14T00:19:36;101135.22;;;5.29;100.00
76694;BME280;69667;52.136;5.424;2023-12-14T00:22:05;101131.69;;;5.28;100.00
76694;BME280;69667;52.136;5.424;2023-12-14T00:24:33;101138.75;;;5.29;100.00
76694;BME280;69667;52.136;5.424;2023-12-14T00:27:01;101142.38;;;5.28;100.00
76694;BME280;69667;52.136;5.424;2023-12-14T00:29:29;101153.00;;;5.30;100.00
76694;BME280;69667;52.136;5.424;2023-12-14T00:31:58;101151.28;;;5.29;100.00
76694;BME280;69667;52.136;5.424;2023-12-14T00:34:26;101163.78;;;5.28;100.00
76694;BME280;69667;52.136;5.424;2023-12-14T00:36:54;101160.25;;;5.28;100.00
76694;BME280;69667;52.136;5.424;2023-12-14T00:39:23;101161.03;;;5.30;100.00
76694;BME280;69667;52.136;5.424;2023-12-14T00:41:51;101169.06;;;5.30;100.00
76694;BME280;69667;52.136;5.424;2023-12-14T00:44:19;101166.38;;;5.30;100.00
76694;BME280;69667;52.136;5.424;2023-12-14T00:46:47;101164.75;;;5.27;100.00
76694;BME280;69667;52.136;5.424;2023-12-14T00:49:16;101167.09;;;5.33;100.00
76694;BME280;69667;52.136;5.424;2023-12-14T00:51:46;101166.47;;;5.28;100.00
76694;BME280;69667;52.136;5.424;2023-12-14T00:54:14;101166.53;;;5.27;100.00
76694;BME280;69667;52.136;5.424;2023-12-14T00:56:43;101176.53;;;5.23;100.00
76694;BME280;69667;52.136;5.424;2023-12-14T00:59:11;101183.81;;;5.19;100.00
76694;BME280;69667;52.136;5.424;2023-12-14T01:01:39;101182.91;;;5.21;100.00
76694;BME280;69667;52.136;5.424;2023-12-14T01:04:08;101190.97;;;5.19;100.00
76694;BME280;69667;52.136;5.424;2023-12-14T01:06:36;101196.31;;;5.19;100.00
76694;BME280;69667;52.136;5.424;2023-12-14T01:09:04;101198.22;;;5.17;100.00
76694;BME280;69667;52.136;5.424;2023-12-14T01:11:32;101207.19;;;5.16;100.00
76694;BME280;69667;52.136;5.424;2023-12-14T01:14:00;101220.63;;;5.14;100.00
76694;BME280;69667;52.136;5.424;2023-12-14T01:16:29;101229.53;;;5.15;100.00
76694;BME280;69667;52.136;5.424;2023-12-14T01:18:57;101220.72;;;5.13;100.00
76694;BME280;69667;52.136;5.424;2023-12-14T01:21:26;101230.50;;;5.14;100.00
76694;BME280;69667;52.136;5.424;2023-12-14T01:23:54;101228.81;;;5.11;100.00
76694;BME280;69667;52.136;5.424;2023-12-14T01:26:22;101233.09;;;5.15;100.00
76694;BME280;69667;52.136;5.424;2023-12-14T01:28:51;101241.97;;;5.16;100.00
76694;BME280;69667;52.136;5.424;2023-12-14T01:31:19;101238.56;;;5.12;100.00
76694;BME280;69667;52.136;5.424;2023-12-14T01:33:50;101242.25;;;5.10;100.00
76694;BME280;69667;52.136;5.424;2023-12-14T01:36:23;101240.38;;;5.12;100.00
76694;BME280;69667;52.136;5.424;2023-12-14T01:38:52;101244.78;;;5.13;100.00
76694;BME280;69667;52.136;5.424;2023-12-14T01:41:20;101249.06;;;5.17;100.00
76694;BME280;69667;52.136;5.424;2023-12-14T01:43:49;101246.53;;;5.14;100.00
76694;BME280;69667;52.136;5.424;2023-12-14T01:46:17;101250.94;;;5.15;100.00
76694;BME280;69667;52.136;5.424;2023-12-14T01:48:45;101251.81;;;5.15;100.00
76694;BME280;69667;52.136;5.424;2023-12-14T01:51:14;101270.56;;;5.15;100.00
76694;BME280;69667;52.136;5.424;2023-12-14T01:53:42;101284.84;;;5.14;100.00
76694;BME280;69667;52.136;5.424;2023-12-14T01:56:10;101283.13;;;5.13;100.00
76694;BME280;69667;52.136;5.424;2023-12-14T01:58:39;101285.72;;;5.15;100.00
76694;BME280;69667;52.136;5.424;2023-12-14T02:03:51;101292.81;;;5.16;100.00
76694;BME280;69667;52.136;5.424;2023-12-14T02:06:21;101300.81;;;5.16;100.00
76694;BME280;69667;52.136;5.424;2023-12-14T02:08:49;101308.84;;;5.16;100.00
76694;BME280;69667;52.136;5.424;2023-12-14T02:11:18;101309.81;;;5.15;100.00
76694;BME280;69667;52.136;5.424;2023-12-14T02:13:46;101307.06;;;5.16;100.00
76694;BME280;69667;52.136;5.424;2023-12-14T02:16:14;101314.94;;;5.19;100.00
76694;BME280;69667;52.136;5.424;2023-12-14T02:18:43;101324.72;;;5.21;100.00
76694;BME280;69667;52.136;5.424;2023-12-14T02:21:11;101333.66;;;5.19;100.00
76694;BME280;69667;52.136;5.424;2023-12-14T02:23:46;101330.25;;;5.16;100.00
76694;BME280;69667;52.136;5.424;2023-12-14T02:26:14;101339.16;;;5.16;100.00
76694;BME280;69667;52.136;5.424;2023-12-14T02:28:43;101342.78;;;5.15;100.00
76694;BME280;69667;52.136;5.424;2023-12-14T02:31:11;101357.00;;;5.16;100.00
76694;BME280;69667;52.136;5.424;2023-12-14T02:33:39;101358.03;;;5.13;100.00
76694;BME280;69667;52.136;5.424;2023-12-14T02:36:08;101361.63;;;5.12;100.00
76694;BME280;69667;52.136;5.424;2023-12-14T02:38:36;101366.13;;;5.12;100.00
76694;BME280;69667;52.136;5.424;2023-12-14T02:41:04;101380.31;;;5.14;100.00
76694;BME280;69667;52.136;5.424;2023-12-14T02:43:33;101370.47;;;5.14;100.00
76694;BME280;69667;52.136;5.424;2023-12-14T02:46:02;101372.28;;;5.14;100.00
76694;BME280;69667;52.136;5.424;2023-12-14T02:48:30;101380.34;;;5.12;100.00
76694;BME280;69667;52.136;5.424;2023-12-14T02:50:59;101380.50;;;5.09;100.00
76694;BME280;69667;52.136;5.424;2023-12-14T02:53:28;101388.53;;;5.09;100.00
76694;BME280;69667;52.136;5.424;2023-12-14T02:55:56;101386.66;;;5.11;100.00
76694;BME280;69667;52.136;5.424;2023-12-14T02:58:24;101397.28;;;5.13;100.00
76694;BME280;69667;52.136;5.424;2023-12-14T03:00:52;101392.06;;;5.10;100.00
76694;BME280;69667;52.136;5.424;2023-12-14T03:03:20;101400.91;;;5.12;100.00
76694;BME280;69667;52.136;5.424;2023-12-14T03:05:49;101400.84;;;5.13;100.00
76694;BME280;69667;52.136;5.424;2023-12-14T03:08:17;101406.19;;;5.13;100.00
76694;BME280;69667;52.136;5.424;2023-12-14T03:10:45;101399.97;;;5.13;100.00
76694;BME280;69667;52.136;5.424;2023-12-14T03:13:14;101404.44;;;5.12;100.00
76694;BME280;69667;52.136;5.424;2023-12-14T03:15:42;101407.06;;;5.14;100.00
76694;BME280;69667;52.136;5.424;2023-12-14T03:18:12;101405.25;;;5.14;100.00
76694;BME280;69667;52.136;5.424;2023-12-14T03:20:41;101409.75;;;5.14;100.00
76694;BME280;69667;52.136;5.424;2023-12-14T03:23:09;101413.41;;;5.11;100.00
76694;BME280;69667;52.136;5.424;2023-12-14T03:25:37;101409.00;;;5.10;100.00
76694;BME280;69667;52.136;5.424;2023-12-14T03:28:05;101409.94;;;5.09;100.00
76694;BME280;69667;52.136;5.424;2023-12-14T03:30:34;101414.44;;;5.09;100.00
76694;BME280;69667;52.136;5.424;2023-12-14T03:33:02;101415.41;;;5.06;100.00
76694;BME280;69667;52.136;5.424;2023-12-14T03:35:32;101414.44;;;5.09;100.00
76694;BME280;69667;52.136;5.424;2023-12-14T03:38:00;101409.94;;;5.09;100.00
76694;BME280;69667;52.136;5.424;2023-12-14T03:40:29;101399.28;;;5.08;100.00
76694;BME280;69667;52.136;5.424;2023-12-14T03:42:57;101410.00;;;5.08;100.00
76694;BME280;69667;52.136;5.424;2023-12-14T03:45:25;101413.63;;;5.07;100.00
76694;BME280;69667;52.136;5.424;2023-12-14T03:47:53;101410.06;;;5.06;100.00
76694;BME280;69667;52.136;5.424;2023-12-14T03:50:22;101411.94;;;5.04;100.00
76694;BME280;69667;52.136;5.424;2023-12-14T03:52:50;101413.69;;;5.05;100.00
76694;BME280;69667;52.136;5.424;2023-12-14T03:55:18;101414.53;;;5.06;100.00
76694;BME280;69667;52.136;5.424;2023-12-14T03:57:47;101413.63;;;5.07;100.00
76694;BME280;69667;52.136;5.424;2023-12-14T04:00:15;101424.38;;;5.05;100.00
76694;BME280;69667;52.136;5.424;2023-12-14T04:02:43;101425.25;;;5.06;100.00
76694;BME280;69667;52.136;5.424;2023-12-14T04:05:12;101427.84;;;5.07;100.00
76694;BME280;69667;52.136;5.424;2023-12-14T04:07:40;101424.38;;;5.05;100.00
76694;BME280;69667;52.136;5.424;2023-12-14T04:10:10;101432.59;;;5.01;100.00
76694;BME280;69667;52.136;5.424;2023-12-14T04:12:39;101448.72;;;4.99;100.00
76694;BME280;69667;52.136;5.424;2023-12-14T04:15:07;101451.53;;;4.96;100.00
76694;BME280;69667;52.136;5.424;2023-12-14T04:17:37;101457.81;;;4.95;100.00
76694;BME280;69667;52.136;5.424;2023-12-14T04:20:06;101463.25;;;4.94;100.00
76694;BME280;69667;52.136;5.424;2023-12-14T04:22:35;101467.63;;;4.95;100.00
76694;BME280;69667;52.136;5.424;2023-12-14T04:25:04;101467.78;;;4.92;100.00
76694;BME280;69667;52.136;5.424;2023-12-14T04:27:33;101473.97;;;4.92;100.00
76694;BME280;69667;52.136;5.424;2023-12-14T04:30:01;101484.56;;;4.95;100.00
76694;BME280;69667;52.136;5.424;2023-12-14T04:32:32;101481.16;;;4.92;100.00
76694;BME280;69667;52.136;5.424;2023-12-14T04:35:00;101479.38;;;4.91;100.00
76694;BME280;69667;52.136;5.424;2023-12-14T04:37:29;101483.88;;;4.90;100.00
76694;BME280;69667;52.136;5.424;2023-12-14T04:39:58;101489.25;;;4.90;100.00
76694;BME280;69667;52.136;5.424;2023-12-14T04:42:26;101498.13;;;4.91;100.00
76694;BME280;69667;52.136;5.424;2023-12-14T04:44:55;101498.13;;;4.91;100.00
76694;BME280;69667;52.136;5.424;2023-12-14T04:47:23;101517.50;;;4.96;100.00
76694;BME280;69667;52.136;5.424;2023-12-14T04:49:51;101519.41;;;4.94;100.00
76694;BME280;69667;52.136;5.424;2023-12-14T04:52:20;101521.28;;;4.92;100.00
76694;BME280;69667;52.136;5.424;2023-12-14T04:54:48;101527.53;;;4.91;100.00
76694;BME280;69667;52.136;5.424;2023-12-14T04:57:17;101533.91;;;4.88;100.00
76694;BME280;69667;52.136;5.424;2023-12-14T04:59:45;101540.06;;;4.90;100.00
76694;BME280;69667;52.136;5.424;2023-12-14T05:02:13;101546.19;;;4.92;100.00
76694;BME280;69667;52.136;5.424;2023-12-14T05:04:42;101547.19;;;4.90;100.00
76694;BME280;69667;52.136;5.424;2023-12-14T05:07:10;101557.91;;;4.90;100.00
76694;BME280;69667;52.136;5.424;2023-12-14T05:09:38;101556.94;;;4.91;100.00
76694;BME280;69667;52.136;5.424;2023-12-14T05:12:07;101564.97;;;4.91;100.00
76694;BME280;69667;52.136;5.424;2023-12-14T05:14:35;101571.22;;;4.91;100.00
76694;BME280;69667;52.136;5.424;2023-12-14T05:17:03;101574.88;;;4.89;100.00
76694;BME280;69667;52.136;5.424;2023-12-14T05:19:34;101589.13;;;4.89;100.00
76694;BME280;69667;52.136;5.424;2023-12-14T05:22:04;101593.66;;;4.87;100.00
76694;BME280;69667;52.136;5.424;2023-12-14T05:24:32;101605.28;;;4.86;100.00
76694;BME280;69667;52.136;5.424;2023-12-14T05:27:00;101610.56;;;4.88;100.00
76694;BME280;69667;52.136;5.424;2023-12-14T05:29:28;101624.06;;;4.85;100.00
76694;BME280;69667;52.136;5.424;2023-12-14T05:31:56;101613.38;;;4.85;100.00
76694;BME280;69667;52.136;5.424;2023-12-14T05:34:25;101620.59;;;4.83;100.00
76694;BME280;69667;52.136;5.424;2023-12-14T05:36:54;101616.25;;;4.80;100.00
76694;BME280;69667;52.136;5.424;2023-12-14T05:39:22;101631.22;;;4.84;100.00
76694;BME280;69667;52.136;5.424;2023-12-14T05:41:50;101625.81;;;4.86;100.00
76694;BME280;69667;52.136;5.424;2023-12-14T05:44:18;101622.16;;;4.88;100.00
76694;BME280;69667;52.136;5.424;2023-12-14T05:46:47;101635.41;;;4.91;100.00
76694;BME280;69667;52.136;5.424;2023-12-14T05:49:15;101639.88;;;4.91;100.00
76694;BME280;69667;52.136;5.424;2023-12-14T05:51:44;101632.72;;;4.91;100.00
76694;BME280;69667;52.136;5.424;2023-12-14T05:54:12;101643.41;;;4.91;100.00
76694;BME280;69667;52.136;5.424;2023-12-14T05:56:40;101647.94;;;4.89;100.00
76694;BME280;69667;52.136;5.424;2023-12-14T05:59:09;101645.47;;;4.85;100.00
76694;BME280;69667;52.136;5.424;2023-12-14T06:01:37;101651.69;;;4.85;100.00
76694;BME280;69667;52.136;5.424;2023-12-14T06:04:05;101655.22;;;4.86;100.00
76694;BME280;69667;52.136;5.424;2023-12-14T06:06:34;101658.03;;;4.83;100.00
76694;BME280;69667;52.136;5.424;2023-12-14T06:09:02;101673.25;;;4.81;100.00
76694;BME280;69667;52.136;5.424;2023-12-14T06:11:30;101674.31;;;4.77;100.00
76694;BME280;69667;52.136;5.424;2023-12-14T06:13:59;101678.03;;;4.73;100.00
76694;BME280;69667;52.136;5.424;2023-12-14T06:16:27;101677.31;;;4.68;100.00
76694;BME280;69667;52.136;5.424;2023-12-14T06:18:55;101684.66;;;4.63;100.00
76694;BME280;69667;52.136;5.424;2023-12-14T06:21:24;101688.31;;;4.60;100.00
76694;BME280;69667;52.136;5.424;2023-12-14T06:23:56;101683.94;;;4.58;100.00
76694;BME280;69667;52.136;5.424;2023-12-14T06:26:26;101694.63;;;4.58;100.00
76694;BME280;69667;52.136;5.424;2023-12-14T06:28:54;101703.59;;;4.57;100.00
76694;BME280;69667;52.136;5.424;2023-12-14T06:31:23;101699.94;;;4.59;100.00
76694;BME280;69667;52.136;5.424;2023-12-14T06:33:52;101715.13;;;4.59;100.00
76694;BME280;69667;52.136;5.424;2023-12-14T06:36:23;101716.91;;;4.58;100.00
76694;BME280;69667;52.136;5.424;2023-12-14T06:38:58;101724.22;;;4.53;100.00
76694;BME280;69667;52.136;5.424;2023-12-14T06:41:27;101731.41;;;4.51;100.00
76694;BME280;69667;52.136;5.424;2023-12-14T06:43:56;101739.38;;;4.53;100.00
76694;BME280;69667;52.136;5.424;2023-12-14T06:46:24;101743.84;;;4.52;100.00
76694;BME280;69667;52.136;5.424;2023-12-14T06:48:52;101749.25;;;4.51;100.00
76694;BME280;69667;52.136;5.424;2023-12-14T06:51:24;101751.13;;;4.49;100.00
76694;BME280;69667;52.136;5.424;2023-12-14T06:53:52;101752.03;;;4.48;100.00
76694;BME280;69667;52.136;5.424;2023-12-14T06:56:20;101757.38;;;4.48;100.00
76694;BME280;69667;52.136;5.424;2023-12-14T06:58:48;101759.47;;;4.40;100.00
76694;BME280;69667;52.136;5.424;2023-12-14T07:01:17;101768.41;;;4.39;100.00
76694;BME280;69667;52.136;5.424;2023-12-14T07:03:45;101773.81;;;4.37;100.00
76694;BME280;69667;52.136;5.424;2023-12-14T07:06:16;101777.56;;;4.32;100.00
76694;BME280;69667;52.136;5.424;2023-12-14T07:08:45;101784.69;;;4.31;100.00
76694;BME280;69667;52.136;5.424;2023-12-14T07:11:15;101789.22;;;4.29;100.00
76694;BME280;69667;52.136;5.424;2023-12-14T07:13:44;101792.94;;;4.25;100.00
76694;BME280;69667;52.136;5.424;2023-12-14T07:16:13;101801.91;;;4.23;100.00
76694;BME280;69667;52.136;5.424;2023-12-14T07:18:42;101811.75;;;4.22;100.00
76694;BME280;69667;52.136;5.424;2023-12-14T07:21:11;101817.13;;;4.21;100.00
76694;BME280;69667;52.136;5.424;2023-12-14T07:23:39;101814.44;;;4.22;100.00
76694;BME280;69667;52.136;5.424;2023-12-14T07:26:08;101811.75;;;4.22;100.00
76694;BME280;69667;52.136;5.424;2023-12-14T07:28:36;101818.88;;;4.22;100.00
76694;BME280;69667;52.136;5.424;2023-12-14T07:31:05;101823.22;;;4.24;100.00
76694;BME280;69667;52.136;5.424;2023-12-14T07:33:33;101824.22;;;4.22;100.00
76694;BME280;69667;52.136;5.424;2023-12-14T07:36:03;101827.78;;;4.22;100.00
76694;BME280;69667;52.136;5.424;2023-12-14T07:38:33;101828.63;;;4.23;100.00
76694;BME280;69667;52.136;5.424;2023-12-14T07:41:01;101828.69;;;4.21;100.00
76694;BME280;69667;52.136;5.424;2023-12-14T07:43:30;101839.47;;;4.18;100.00
76694;BME280;69667;52.136;5.424;2023-12-14T07:45:58;101829.72;;;4.17;100.00
76694;BME280;69667;52.136;5.424;2023-12-14T07:48:27;101837.75;;;4.17;100.00
76694;BME280;69667;52.136;5.424;2023-12-14T07:50:56;101852.78;;;4.20;100.00
76694;BME280;69667;52.136;5.424;2023-12-14T07:53:24;101855.28;;;4.24;100.00
76694;BME280;69667;52.136;5.424;2023-12-14T07:55:52;101852.63;;;4.24;100.00
76694;BME280;69667;52.136;5.424;2023-12-14T07:58:20;101864.16;;;4.26;100.00
76694;BME280;69667;52.136;5.424;2023-12-14T08:00:49;101859.56;;;4.30;100.00
76694;BME280;69667;52.136;5.424;2023-12-14T08:03:17;101861.28;;;4.32;100.00
76694;BME280;69667;52.136;5.424;2023-12-14T08:05:45;101861.28;;;4.32;100.00
76694;BME280;69667;52.136;5.424;2023-12-14T08:08:13;101865.63;;;4.35;100.00
76694;BME280;69667;52.136;5.424;2023-12-14T08:10:42;101875.31;;;4.39;100.00
76694;BME280;69667;52.136;5.424;2023-12-14T08:13:10;101867.44;;;4.34;100.00
76694;BME280;69667;52.136;5.424;2023-12-14T08:15:38;101871.94;;;4.34;100.00
76694;BME280;69667;52.136;5.424;2023-12-14T08:18:07;101876.34;;;4.35;100.00
76694;BME280;69667;52.136;5.424;2023-12-14T08:20:35;101880.72;;;4.37;100.00
76694;BME280;69667;52.136;5.424;2023-12-14T08:23:04;101882.50;;;4.37;100.00
76694;BME280;69667;52.136;5.424;2023-12-14T08:25:32;101891.41;;;4.37;100.00
76694;BME280;69667;52.136;5.424;2023-12-14T08:28:00;101901.06;;;4.41;100.00
76694;BME280;69667;52.136;5.424;2023-12-14T08:30:31;101906.28;;;4.44;100.00
76694;BME280;69667;52.136;5.424;2023-12-14T08:33:00;101906.41;;;4.41;100.00
76694;BME280;69667;52.136;5.424;2023-12-14T08:35:28;101904.59;;;4.42;100.00
76694;BME280;69667;52.136;5.424;2023-12-14T08:37:57;101904.66;;;4.40;100.00
76694;BME280;69667;52.136;5.424;2023-12-14T08:40:25;101909.13;;;4.40;100.00
76694;BME280;69667;52.136;5.424;2023-12-14T08:42:53;101912.63;;;4.42;100.00
76694;BME280;69667;52.136;5.424;2023-12-14T08:45:21;101917.09;;;4.41;100.00
76694;BME280;69667;52.136;5.424;2023-12-14T08:47:50;101915.25;;;4.43;100.00
76694;BME280;69667;52.136;5.424;2023-12-14T08:50:18;101915.13;;;4.46;100.00
76694;BME280;69667;52.136;5.424;2023-12-14T08:52:47;101932.94;;;4.47;100.00
76694;BME280;69667;52.136;5.424;2023-12-14T08:55:15;101936.47;;;4.48;100.00
76694;BME280;69667;52.136;5.424;2023-12-14T08:57:43;101951.59;;;4.49;100.00
76694;BME280;69667;52.136;5.424;2023-12-14T09:00:12;101946.25;;;4.49;100.00
76694;BME280;69667;52.136;5.424;2023-12-14T09:02:41;101948.97;;;4.47;100.00
76694;BME280;69667;52.136;5.424;2023-12-14T09:05:09;101954.28;;;4.49;100.00
76694;BME280;69667;52.136;5.424;2023-12-14T09:07:43;101962.13;;;4.53;100.00
76694;BME280;69667;52.136;5.424;2023-12-14T09:10:11;101954.00;;;4.56;100.00
76694;BME280;69667;52.136;5.424;2023-12-14T09:12:39;101954.84;;;4.58;100.00
76694;BME280;69667;52.136;5.424;2023-12-14T09:15:08;101966.41;;;4.59;100.00
76694;BME280;69667;52.136;5.424;2023-12-14T09:17:36;101968.16;;;4.60;100.00
76694;BME280;69667;52.136;5.424;2023-12-14T09:20:05;101977.84;;;4.62;100.00
76694;BME280;69667;52.136;5.424;2023-12-14T09:22:34;101985.84;;;4.64;100.00
76694;BME280;69667;52.136;5.424;2023-12-14T09:25:02;101981.41;;;4.63;100.00
76694;BME280;69667;52.136;5.424;2023-12-14T09:27:31;101989.28;;;4.67;100.00
76694;BME280;69667;52.136;5.424;2023-12-14T09:30:00;101993.03;;;4.62;100.00
76694;BME280;69667;52.136;5.424;2023-12-14T09:32:28;101991.28;;;4.61;100.00
76694;BME280;69667;52.136;5.424;2023-12-14T09:34:57;102003.75;;;4.62;100.00
76694;BME280;69667;52.136;5.424;2023-12-14T09:37:26;102007.25;;;4.62;100.00
76694;BME280;69667;52.136;5.424;2023-12-14T09:39:54;102010.78;;;4.64;100.00
76694;BME280;69667;52.136;5.424;2023-12-14T09:42:22;102010.66;;;4.69;100.00
76694;BME280;69667;52.136;5.424;2023-12-14T09:44:52;102015.00;;;4.71;100.00
76694;BME280;69667;52.136;5.424;2023-12-14T09:47:20;102016.66;;;4.75;100.00
76694;BME280;69667;52.136;5.424;2023-12-14T09:49:49;102028.16;;;4.77;100.00
76694;BME280;69667;52.136;5.424;2023-12-14T09:52:20;102025.38;;;4.82;100.00
76694;BME280;69667;52.136;5.424;2023-12-14T09:54:48;102037.63;;;4.89;100.00
76694;BME280;69667;52.136;5.424;2023-12-14T09:57:19;102048.16;;;4.93;100.00
76694;BME280;69667;52.136;5.424;2023-12-14T09:59:51;102054.28;;;4.97;100.00
76694;BME280;69667;52.136;5.424;2023-12-14T10:02:20;102057.00;;;4.95;100.00
76694;BME280;69667;52.136;5.424;2023-12-14T10:04:52;102065.09;;;4.92;100.00
76694;BME280;69667;52.136;5.424;2023-12-14T10:07:22;102068.63;;;4.94;100.00
76694;BME280;69667;52.136;5.424;2023-12-14T10:09:50;102071.16;;;4.99;100.00
76694;BME280;69667;52.136;5.424;2023-12-14T10:12:18;102080.00;;;5.01;100.00
76694;BME280;69667;52.136;5.424;2023-12-14T10:15:00;102071.72;;;5.08;100.00
76694;BME280;69667;52.136;5.424;2023-12-14T10:17:33;102073.34;;;5.12;100.00
76694;BME280;69667;52.136;5.424;2023-12-14T10:20:01;102065.19;;;5.17;100.00
76694;BME280;69667;52.136;5.424;2023-12-14T10:22:32;102060.56;;;5.22;100.00
76694;BME280;69667;52.136;5.424;2023-12-14T10:25:00;102064.03;;;5.24;100.00
76694;BME280;69667;52.136;5.424;2023-12-14T10:27:30;102060.34;;;5.28;100.00
76694;BME280;69667;52.136;5.424;2023-12-14T10:30:01;102060.00;;;5.39;100.00
76694;BME280;69667;52.136;5.424;2023-12-14T10:32:33;102069.41;;;5.50;100.00
76694;BME280;69667;52.136;5.424;2023-12-14T10:35:01;102062.78;;;5.60;100.00
76694;BME280;69667;52.136;5.424;2023-12-14T10:37:32;102067.34;;;5.83;100.00
76694;BME280;69667;52.136;5.424;2023-12-14T10:40:03;102071.44;;;6.17;100.00
76694;BME280;69667;52.136;5.424;2023-12-14T10:42:34;102069.59;;;6.64;100.00
76694;BME280;69667;52.136;5.424;2023-12-14T10:45:04;102076.63;;;6.67;100.00
76694;BME280;69667;52.136;5.424;2023-12-14T10:47:47;102072.91;;;6.47;100.00
76694;BME280;69667;52.136;5.424;2023-12-14T10:50:15;102069.03;;;6.33;100.00
76694;BME280;69667;52.136;5.424;2023-12-14T10:52:45;102073.63;;;6.29;100.00
76694;BME280;69667;52.136;5.424;2023-12-14T10:55:27;102076.44;;;6.26;100.00
76694;BME280;69667;52.136;5.424;2023-12-14T10:57:57;102072.84;;;6.27;100.00
76694;BME280;69667;52.136;5.424;2023-12-14T11:00:26;102078.94;;;6.31;100.00
76694;BME280;69667;52.136;5.424;2023-12-14T11:02:54;102076.94;;;6.36;100.00
76694;BME280;69667;52.136;5.424;2023-12-14T11:05:23;102080.38;;;6.39;100.00
76694;BME280;69667;52.136;5.424;2023-12-14T11:08:04;102078.28;;;6.47;100.00
76694;BME280;69667;52.136;5.424;2023-12-14T11:11:01;102092.69;;;6.45;100.00
76694;BME280;69667;52.136;5.424;2023-12-14T11:13:39;102096.38;;;6.43;100.00
76694;BME280;69667;52.136;5.424;2023-12-14T11:16:09;102098.25;;;6.40;100.00
76694;BME280;69667;52.136;5.424;2023-12-14T11:18:37;102105.09;;;6.47;100.00
76694;BME280;69667;52.136;5.424;2023-12-14T11:21:06;102100.09;;;6.62;100.00
76694;BME280;69667;52.136;5.424;2023-12-14T11:23:36;102116.16;;;6.85;100.00
76694;BME280;69667;52.136;5.424;2023-12-14T11:26:09;102105.06;;;6.94;100.00
76694;BME280;69667;52.136;5.424;2023-12-14T11:28:40;102110.63;;;7.11;100.00
76694;BME280;69667;52.136;5.424;2023-12-14T11:31:12;102112.09;;;7.18;100.00
76694;BME280;69667;52.136;5.424;2023-12-14T11:33:40;102116.91;;;7.10;100.00
76694;BME280;69667;52.136;5.424;2023-12-14T11:36:12;102121.78;;;7.00;100.00
76694;BME280;69667;52.136;5.424;2023-12-14T11:38:42;102120.97;;;6.98;100.00
76694;BME280;69667;52.136;5.424;2023-12-14T11:41:11;102120.59;;;6.86;100.00
76694;BME280;69667;52.136;5.424;2023-12-14T11:43:43;102121.38;;;6.89;100.00
76694;BME280;69667;52.136;5.424;2023-12-14T11:46:13;102118.47;;;6.94;100.00
76694;BME280;69667;52.136;5.424;2023-12-14T11:48:44;102117.91;;;6.63;100.00
76694;BME280;69667;52.136;5.424;2023-12-14T11:51:14;102107.78;;;6.71;100.00
76694;BME280;69667;52.136;5.424;2023-12-14T11:53:46;102117.22;;;6.81;100.00
76694;BME280;69667;52.136;5.424;2023-12-14T11:56:18;102120.41;;;6.90;100.00
76694;BME280;69667;52.136;5.424;2023-12-14T11:58:47;102117.03;;;6.85;100.00
76694;BME280;69667;52.136;5.424;2023-12-14T12:01:18;102125.84;;;6.89;100.00
76694;BME280;69667;52.136;5.424;2023-12-14T12:03:48;102134.19;;;7.03;100.00
76694;BME280;69667;52.136;5.424;2023-12-14T12:06:24;102125.44;;;6.99;100.00
76694;BME280;69667;52.136;5.424;2023-12-14T12:08:53;102127.44;;;6.93;100.00
76694;BME280;69667;52.136;5.424;2023-12-14T12:11:22;102135.19;;;6.79;100.00
76694;BME280;69667;52.136;5.424;2023-12-14T12:13:52;102127.97;;;6.81;100.00
76694;BME280;69667;52.136;5.424;2023-12-14T12:16:22;102129.44;;;6.88;100.00
76694;BME280;69667;52.136;5.424;2023-12-14T12:18:50;102132.88;;;6.91;100.00
76694;BME280;69667;52.136;5.424;2023-12-14T12:21:19;102140.63;;;6.77;100.00
76694;BME280;69667;52.136;5.424;2023-12-14T12:23:47;102138.16;;;6.71;100.00
76694;BME280;69667;52.136;5.424;2023-12-14T12:26:15;102145.22;;;6.74;100.00
76694;BME280;69667;52.136;5.424;2023-12-14T12:28:44;102137.19;;;6.74;100.00
76694;BME280;69667;52.136;5.424;2023-12-14T12:31:16;102141.97;;;6.66;100.00
76694;BME280;69667;52.136;5.424;2023-12-14T12:33:44;102147.59;;;6.58;100.00
76694;BME280;69667;52.136;5.424;2023-12-14T12:36:12;102152.47;;;6.49;100.00
76694;BME280;69667;52.136;5.424;2023-12-14T12:38:41;102157.06;;;6.45;100.00
76694;BME280;69667;52.136;5.424;2023-12-14T12:41:09;102150.66;;;6.49;100.00
76694;BME280;69667;52.136;5.424;2023-12-14T12:43:37;102155.84;;;6.54;100.00
76694;BME280;69667;52.136;5.424;2023-12-14T12:46:06;102161.22;;;6.54;100.00
76694;BME280;69667;52.136;5.424;2023-12-14T12:48:34;102165.63;;;6.55;100.00
76694;BME280;69667;52.136;5.424;2023-12-14T12:51:03;102161.53;;;6.44;100.00
76694;BME280;69667;52.136;5.424;2023-12-14T12:53:32;102155.72;;;6.33;100.00
76694;BME280;69667;52.136;5.424;2023-12-14T12:56:00;102160.47;;;6.25;100.00
76694;BME280;69667;52.136;5.424;2023-12-14T12:58:29;102156.53;;;6.35;100.00
76694;BME280;69667;52.136;5.424;2023-12-14T13:00:57;102158.91;;;6.43;100.00
76694;BME280;69667;52.136;5.424;2023-12-14T13:03:26;102152.91;;;6.36;100.00